Airfield :
LOGIN :

Register | Disclaimer

   EN    FR    IT 

 










Legend :    VFR   Marginal VFR   IFR   Intensive IFR   Very Intensive IFR
Visi :
Ceiling :
>= 8 km
>= 3000ft
5 to 8 km
1000 to 3000 ft
1500m to 5 km
500 to 1000 ft
800 to 1500m
200 to 500 ft
< 800m
< 200 ft
Symbols :   Thunderstorms  Fog  Heavy snow  Heavy precipitations  Wind > 20 kt
SIGMETs :     Misc.  Thunderstorms  Icing  Turbulence  Mountain Waves  Volcanic Ashes







- Airport Elevation : 405 ft
- IATA code : SUJ


LRSM - Satu Mare

CURRENT METAR :
  • 231430Z 04004KT 9999 OVC030 12/12 Q1005 R01/29//94

EXPIRED METARs :
  • 231400Z 07003KT 9999 OVC030 12/12 Q1005 R01/29//94
  • 231330Z 09005KT 9999 BKN028 12/12 Q1005 R01/29//94
  • 231300Z 10005KT 7000 -RA BKN028 12/12 Q1005 R01/29//95
  • 231230Z 11005KT 6000 -RA BKN032 12/12 Q1005 R01/29//95
  • 231200Z 13006KT 6000 -RA BKN035 12/11 Q1005 RERA R01/29//95

TAF TAF LRSM
Valid from the 23 at 15:00 until the 24 at 00:00 UTC


231400Z 2315/2324 VRB04KT 9999 BKN030
TEMPO 2315/2318 BKN010 BKN025
BECMG 2318/2320 5000 -RA BKN010 BKN025
No reported NOTAMs for that airfield.



MET'MAP, your aeronautical weather chart ! - Copyright ORBIFLY December 2007 - Disclaimer

ORBIFLY MET'MAP TEAM :

Programming & Development : Alexandra Zaïnal
Concept & Development : Baudouin d'Aumeries
Co-Development & Prog : Marc-Olivier Méhu
Technical & hardware support : Manuel Goepfert

Contact : metmap@orbifly.com




SOURCES & CREDITS :

   NOAA